sensor_id;sensor_type;location;lat;lon;timestamp;temperature;humidity
68943;DHT22;60852;52.190;4.422;2023-11-19T00:00:10;14.24;89.20
68943;DHT22;60852;52.190;4.422;2023-11-19T00:02:40;14.27;89.37
68943;DHT22;60852;52.190;4.422;2023-11-19T00:05:06;14.31;89.17
68943;DHT22;60852;52.190;4.422;2023-11-19T00:07:37;14.28;88.97
68943;DHT22;60852;52.190;4.422;2023-11-19T00:10:16;14.23;89.18
68943;DHT22;60852;52.190;4.422;2023-11-19T00:12:46;14.21;89.17
68943;DHT22;60852;52.190;4.422;2023-11-19T00:15:16;14.21;89.25
68943;DHT22;60852;52.190;4.422;2023-11-19T00:17:45;14.21;89.28
68943;DHT22;60852;52.190;4.422;2023-11-19T00:20:16;14.24;89.41
68943;DHT22;60852;52.190;4.422;2023-11-19T00:22:43;14.18;89.25
68943;DHT22;60852;52.190;4.422;2023-11-19T00:25:09;14.20;89.21
68943;DHT22;60852;52.190;4.422;2023-11-19T00:27:35;14.14;89.49
68943;DHT22;60852;52.190;4.422;2023-11-19T00:30:03;14.14;89.48
68943;DHT22;60852;52.190;4.422;2023-11-19T00:32:31;14.20;89.21
68943;DHT22;60852;52.190;4.422;2023-11-19T00:34:57;14.21;89.30
68943;DHT22;60852;52.190;4.422;2023-11-19T00:37:22;14.20;89.31
68943;DHT22;60852;52.190;4.422;2023-11-19T00:39:47;14.16;89.60
68943;DHT22;60852;52.190;4.422;2023-11-19T00:42:13;14.20;89.28
68943;DHT22;60852;52.190;4.422;2023-11-19T00:44:39;14.21;89.10
68943;DHT22;60852;52.190;4.422;2023-11-19T00:47:05;14.17;89.36
68943;DHT22;60852;52.190;4.422;2023-11-19T00:49:30;14.17;88.97
68943;DHT22;60852;52.190;4.422;2023-11-19T00:51:58;14.14;88.96
68943;DHT22;60852;52.190;4.422;2023-11-19T00:54:24;14.06;89.14
68943;DHT22;60852;52.190;4.422;2023-11-19T00:56:52;14.16;88.90
68943;DHT22;60852;52.190;4.422;2023-11-19T00:59:18;14.14;88.86
68943;DHT22;60852;52.190;4.422;2023-11-19T01:01:43;14.14;88.63
68943;DHT22;60852;52.190;4.422;2023-11-19T01:04:08;14.16;88.48
68943;DHT22;60852;52.190;4.422;2023-11-19T01:06:34;14.20;88.44
68943;DHT22;60852;52.190;4.422;2023-11-19T01:08:59;14.18;88.27
68943;DHT22;60852;52.190;4.422;2023-11-19T01:11:26;14.21;88.24
68943;DHT22;60852;52.190;4.422;2023-11-19T01:13:52;14.13;88.06
68943;DHT22;60852;52.190;4.422;2023-11-19T01:16:18;14.17;87.85
68943;DHT22;60852;52.190;4.422;2023-11-19T01:18:47;14.13;87.85
68943;DHT22;60852;52.190;4.422;2023-11-19T01:21:12;14.10;87.83
68943;DHT22;60852;52.190;4.422;2023-11-19T01:23:40;14.09;87.51
68943;DHT22;60852;52.190;4.422;2023-11-19T01:26:05;14.07;87.38
68943;DHT22;60852;52.190;4.422;2023-11-19T01:28:31;14.06;87.39
68943;DHT22;60852;52.190;4.422;2023-11-19T01:30:56;14.05;87.19
68943;DHT22;60852;52.190;4.422;2023-11-19T01:33:22;14.05;87.20
68943;DHT22;60852;52.190;4.422;2023-11-19T01:35:48;14.06;86.98
68943;DHT22;60852;52.190;4.422;2023-11-19T01:38:13;14.02;86.96
68943;DHT22;60852;52.190;4.422;2023-11-19T01:40:39;14.00;86.81
68943;DHT22;60852;52.190;4.422;2023-11-19T01:43:05;14.00;86.94
68943;DHT22;60852;52.190;4.422;2023-11-19T01:45:31;13.99;86.70
68943;DHT22;60852;52.190;4.422;2023-11-19T01:48:00;13.97;86.74
68943;DHT22;60852;52.190;4.422;2023-11-19T01:50:27;13.96;86.57
68943;DHT22;60852;52.190;4.422;2023-11-19T01:52:54;13.87;86.74
68943;DHT22;60852;52.190;4.422;2023-11-19T01:55:20;13.89;86.56
68943;DHT22;60852;52.190;4.422;2023-11-19T01:57:49;13.91;86.53
68943;DHT22;60852;52.190;4.422;2023-11-19T02:00:15;13.86;86.48
68943;DHT22;60852;52.190;4.422;2023-11-19T02:02:43;13.85;86.58
68943;DHT22;60852;52.190;4.422;2023-11-19T02:05:11;13.86;86.57
68943;DHT22;60852;52.190;4.422;2023-11-19T02:07:37;13.75;86.77
68943;DHT22;60852;52.190;4.422;2023-11-19T02:10:02;13.76;86.87
68943;DHT22;60852;52.190;4.422;2023-11-19T02:12:31;13.70;87.00
68943;DHT22;60852;52.190;4.422;2023-11-19T02:14:59;13.72;87.00
68943;DHT22;60852;52.190;4.422;2023-11-19T02:17:29;13.75;86.78
68943;DHT22;60852;52.190;4.422;2023-11-19T02:19:57;13.75;86.60
68943;DHT22;60852;52.190;4.422;2023-11-19T02:22:23;13.68;86.73
68943;DHT22;60852;52.190;4.422;2023-11-19T02:24:51;13.63;86.95
68943;DHT22;60852;52.190;4.422;2023-11-19T02:30:16;13.63;86.86
68943;DHT22;60852;52.190;4.422;2023-11-19T02:32:42;13.62;86.78
68943;DHT22;60852;52.190;4.422;2023-11-19T02:35:08;13.62;86.72
68943;DHT22;60852;52.190;4.422;2023-11-19T02:37:34;13.63;86.70
68943;DHT22;60852;52.190;4.422;2023-11-19T02:40:00;13.61;86.68
68943;DHT22;60852;52.190;4.422;2023-11-19T02:42:28;13.61;86.65
68943;DHT22;60852;52.190;4.422;2023-11-19T02:44:54;13.56;86.79
68943;DHT22;60852;52.190;4.422;2023-11-19T02:47:19;13.54;86.72
68943;DHT22;60852;52.190;4.422;2023-11-19T02:49:49;13.55;86.75
68943;DHT22;60852;52.190;4.422;2023-11-19T02:52:15;13.56;86.44
68943;DHT22;60852;52.190;4.422;2023-11-19T02:54:40;13.51;86.46
68943;DHT22;60852;52.190;4.422;2023-11-19T02:57:07;13.49;86.58
68943;DHT22;60852;52.190;4.422;2023-11-19T02:59:38;13.48;86.32
68943;DHT22;60852;52.190;4.422;2023-11-19T03:02:05;13.47;86.38
68943;DHT22;60852;52.190;4.422;2023-11-19T03:04:33;13.48;86.49
68943;DHT22;60852;52.190;4.422;2023-11-19T03:06:58;13.51;86.39
68943;DHT22;60852;52.190;4.422;2023-11-19T03:09:24;13.48;86.30
68943;DHT22;60852;52.190;4.422;2023-11-19T03:11:50;13.47;86.33
68943;DHT22;60852;52.190;4.422;2023-11-19T03:14:15;13.51;86.03
68943;DHT22;60852;52.190;4.422;2023-11-19T03:16:45;13.44;86.10
68943;DHT22;60852;52.190;4.422;2023-11-19T03:19:11;13.49;85.95
68943;DHT22;60852;52.190;4.422;2023-11-19T03:21:37;13.44;86.03
68943;DHT22;60852;52.190;4.422;2023-11-19T03:24:03;13.44;85.95
68943;DHT22;60852;52.190;4.422;2023-11-19T03:26:28;13.45;85.55
68943;DHT22;60852;52.190;4.422;2023-11-19T03:28:54;13.47;85.46
68943;DHT22;60852;52.190;4.422;2023-11-19T03:31:21;13.41;85.56
68943;DHT22;60852;52.190;4.422;2023-11-19T03:33:46;13.42;85.31
68943;DHT22;60852;52.190;4.422;2023-11-19T03:36:12;13.44;85.28
68943;DHT22;60852;52.190;4.422;2023-11-19T03:38:38;13.42;85.04
68943;DHT22;60852;52.190;4.422;2023-11-19T03:41:13;13.39;85.02
68943;DHT22;60852;52.190;4.422;2023-11-19T03:43:40;13.35;84.92
68943;DHT22;60852;52.190;4.422;2023-11-19T03:46:26;13.34;84.92
68943;DHT22;60852;52.190;4.422;2023-11-19T03:48:52;13.29;84.86
68943;DHT22;60852;52.190;4.422;2023-11-19T03:51:18;13.29;84.89
68943;DHT22;60852;52.190;4.422;2023-11-19T03:53:46;13.31;84.82
68943;DHT22;60852;52.190;4.422;2023-11-19T03:56:12;13.25;84.41
68943;DHT22;60852;52.190;4.422;2023-11-19T03:58:38;13.31;84.21
68943;DHT22;60852;52.190;4.422;2023-11-19T04:01:13;13.28;84.09
68943;DHT22;60852;52.190;4.422;2023-11-19T04:03:39;13.31;83.77
68943;DHT22;60852;52.190;4.422;2023-11-19T04:06:04;13.28;83.25
68943;DHT22;60852;52.190;4.422;2023-11-19T04:08:30;13.32;83.40
68943;DHT22;60852;52.190;4.422;2023-11-19T04:10:56;13.34;82.95
68943;DHT22;60852;52.190;4.422;2023-11-19T04:13:21;13.39;82.80
68943;DHT22;60852;52.190;4.422;2023-11-19T04:15:49;13.38;82.52
68943;DHT22;60852;52.190;4.422;2023-11-19T04:18:14;13.41;82.26
68943;DHT22;60852;52.190;4.422;2023-11-19T04:20:39;13.45;82.02
68943;DHT22;60852;52.190;4.422;2023-11-19T04:23:10;13.48;81.66
68943;DHT22;60852;52.190;4.422;2023-11-19T04:25:36;13.47;81.50
68943;DHT22;60852;52.190;4.422;2023-11-19T04:28:02;13.41;81.11
68943;DHT22;60852;52.190;4.422;2023-11-19T04:30:28;13.37;80.95
68943;DHT22;60852;52.190;4.422;2023-11-19T04:32:54;13.42;80.97
68943;DHT22;60852;52.190;4.422;2023-11-19T04:35:19;13.37;81.14
68943;DHT22;60852;52.190;4.422;2023-11-19T04:37:45;13.44;81.09
68943;DHT22;60852;52.190;4.422;2023-11-19T04:40:11;13.44;80.88
68943;DHT22;60852;52.190;4.422;2023-11-19T04:42:37;13.39;80.79
68943;DHT22;60852;52.190;4.422;2023-11-19T04:45:06;13.38;80.92
68943;DHT22;60852;52.190;4.422;2023-11-19T04:47:32;13.37;81.09
68943;DHT22;60852;52.190;4.422;2023-11-19T04:49:58;13.31;81.23
68943;DHT22;60852;52.190;4.422;2023-11-19T04:52:24;13.34;81.04
68943;DHT22;60852;52.190;4.422;2023-11-19T04:54:49;13.34;80.97
68943;DHT22;60852;52.190;4.422;2023-11-19T04:57:15;13.31;80.86
68943;DHT22;60852;52.190;4.422;2023-11-19T04:59:40;13.32;80.86
68943;DHT22;60852;52.190;4.422;2023-11-19T05:02:06;13.32;80.95
68943;DHT22;60852;52.190;4.422;2023-11-19T05:04:33;13.34;80.88
68943;DHT22;60852;52.190;4.422;2023-11-19T05:06:58;13.35;80.68
68943;DHT22;60852;52.190;4.422;2023-11-19T05:09:24;13.31;80.58
68943;DHT22;60852;52.190;4.422;2023-11-19T05:11:49;13.27;80.67
68943;DHT22;60852;52.190;4.422;2023-11-19T05:14:15;13.27;80.72
68943;DHT22;60852;52.190;4.422;2023-11-19T05:16:41;13.35;80.65
68943;DHT22;60852;52.190;4.422;2023-11-19T05:19:08;13.39;80.66
68943;DHT22;60852;52.190;4.422;2023-11-19T05:21:34;13.39;80.56
68943;DHT22;60852;52.190;4.422;2023-11-19T05:24:02;13.39;80.58
68943;DHT22;60852;52.190;4.422;2023-11-19T05:26:30;13.38;80.67
68943;DHT22;60852;52.190;4.422;2023-11-19T05:28:56;13.39;80.61
68943;DHT22;60852;52.190;4.422;2023-11-19T05:31:21;13.38;80.60
68943;DHT22;60852;52.190;4.422;2023-11-19T05:33:47;13.34;80.61
68943;DHT22;60852;52.190;4.422;2023-11-19T05:36:12;13.27;80.85
68943;DHT22;60852;52.190;4.422;2023-11-19T05:38:38;13.27;80.51
68943;DHT22;60852;52.190;4.422;2023-11-19T05:41:04;13.25;80.27
68943;DHT22;60852;52.190;4.422;2023-11-19T05:43:31;13.29;80.40
68943;DHT22;60852;52.190;4.422;2023-11-19T05:45:56;13.21;80.36
68943;DHT22;60852;52.190;4.422;2023-11-19T05:48:22;13.28;80.25
68943;DHT22;60852;52.190;4.422;2023-11-19T05:50:48;13.24;80.24
68943;DHT22;60852;52.190;4.422;2023-11-19T05:53:15;13.25;80.34
68943;DHT22;60852;52.190;4.422;2023-11-19T05:55:41;13.34;80.28
68943;DHT22;60852;52.190;4.422;2023-11-19T05:58:27;13.32;80.32
68943;DHT22;60852;52.190;4.422;2023-11-19T06:00:57;13.28;80.61
68943;DHT22;60852;52.190;4.422;2023-11-19T06:03:24;13.29;80.69
68943;DHT22;60852;52.190;4.422;2023-11-19T06:05:50;13.32;80.49
68943;DHT22;60852;52.190;4.422;2023-11-19T06:08:16;13.29;80.33
68943;DHT22;60852;52.190;4.422;2023-11-19T06:10:43;13.29;80.37
68943;DHT22;60852;52.190;4.422;2023-11-19T06:13:11;13.28;80.53
68943;DHT22;60852;52.190;4.422;2023-11-19T06:15:37;13.35;80.40
68943;DHT22;60852;52.190;4.422;2023-11-19T06:18:03;13.34;80.42
68943;DHT22;60852;52.190;4.422;2023-11-19T06:20:32;13.37;80.26
68943;DHT22;60852;52.190;4.422;2023-11-19T06:22:58;13.35;80.42
68943;DHT22;60852;52.190;4.422;2023-11-19T06:25:23;13.34;80.49
68943;DHT22;60852;52.190;4.422;2023-11-19T06:27:52;13.42;80.34
68943;DHT22;60852;52.190;4.422;2023-11-19T06:30:19;13.47;80.16
68943;DHT22;60852;52.190;4.422;2023-11-19T06:32:45;13.42;80.56
68943;DHT22;60852;52.190;4.422;2023-11-19T06:35:10;13.47;80.60
68943;DHT22;60852;52.190;4.422;2023-11-19T06:37:38;13.44;80.72
68943;DHT22;60852;52.190;4.422;2023-11-19T06:40:04;13.47;80.65
68943;DHT22;60852;52.190;4.422;2023-11-19T06:42:30;13.49;80.57
68943;DHT22;60852;52.190;4.422;2023-11-19T06:44:55;13.44;80.45
68943;DHT22;60852;52.190;4.422;2023-11-19T06:47:28;13.44;80.49
68943;DHT22;60852;52.190;4.422;2023-11-19T06:49:54;13.52;80.39
68943;DHT22;60852;52.190;4.422;2023-11-19T06:52:20;13.49;80.25
68943;DHT22;60852;52.190;4.422;2023-11-19T06:54:46;13.48;79.96
68943;DHT22;60852;52.190;4.422;2023-11-19T06:57:11;13.55;79.91
68943;DHT22;60852;52.190;4.422;2023-11-19T06:59:38;13.55;79.91
68943;DHT22;60852;52.190;4.422;2023-11-19T07:02:03;13.58;79.67
68943;DHT22;60852;52.190;4.422;2023-11-19T07:04:30;13.58;79.41
68943;DHT22;60852;52.190;4.422;2023-11-19T07:06:56;13.56;79.30
68943;DHT22;60852;52.190;4.422;2023-11-19T07:09:22;13.62;79.01
68943;DHT22;60852;52.190;4.422;2023-11-19T07:11:48;13.66;78.75
68943;DHT22;60852;52.190;4.422;2023-11-19T07:14:17;13.62;78.74
68943;DHT22;60852;52.190;4.422;2023-11-19T07:16:43;13.52;78.90
68943;DHT22;60852;52.190;4.422;2023-11-19T07:19:09;13.55;78.62
68943;DHT22;60852;52.190;4.422;2023-11-19T07:21:34;13.61;78.71
68943;DHT22;60852;52.190;4.422;2023-11-19T07:24:01;13.48;79.11
68943;DHT22;60852;52.190;4.422;2023-11-19T07:26:27;13.55;79.13
68943;DHT22;60852;52.190;4.422;2023-11-19T07:28:53;13.59;79.21
68943;DHT22;60852;52.190;4.422;2023-11-19T07:31:18;13.56;79.16
68943;DHT22;60852;52.190;4.422;2023-11-19T07:33:47;13.52;79.38
68943;DHT22;60852;52.190;4.422;2023-11-19T07:36:13;13.51;79.57
68943;DHT22;60852;52.190;4.422;2023-11-19T07:38:39;13.56;79.50
68943;DHT22;60852;52.190;4.422;2023-11-19T07:41:05;13.61;79.31
68943;DHT22;60852;52.190;4.422;2023-11-19T07:43:31;13.70;79.15
68943;DHT22;60852;52.190;4.422;2023-11-19T07:45:56;13.75;78.56
68943;DHT22;60852;52.190;4.422;2023-11-19T07:48:25;13.70;78.18
68943;DHT22;60852;52.190;4.422;2023-11-19T07:50:52;13.77;77.81
68943;DHT22;60852;52.190;4.422;2023-11-19T07:53:18;13.83;77.85
68943;DHT22;60852;52.190;4.422;2023-11-19T07:55:44;13.86;77.96
68943;DHT22;60852;52.190;4.422;2023-11-19T07:58:13;13.89;77.87
68943;DHT22;60852;52.190;4.422;2023-11-19T08:00:38;13.89;77.92
68943;DHT22;60852;52.190;4.422;2023-11-19T08:03:04;13.83;77.64
68943;DHT22;60852;52.190;4.422;2023-11-19T08:05:33;13.79;77.67
68943;DHT22;60852;52.190;4.422;2023-11-19T08:07:58;13.79;77.85
68943;DHT22;60852;52.190;4.422;2023-11-19T08:10:24;13.73;77.88
68943;DHT22;60852;52.190;4.422;2023-11-19T08:12:49;13.72;78.29
68943;DHT22;60852;52.190;4.422;2023-11-19T08:15:15;13.73;78.63
68943;DHT22;60852;52.190;4.422;2023-11-19T08:17:41;13.85;78.47
68943;DHT22;60852;52.190;4.422;2023-11-19T08:20:08;13.90;78.61
68943;DHT22;60852;52.190;4.422;2023-11-19T08:22:37;13.91;78.67
68943;DHT22;60852;52.190;4.422;2023-11-19T08:25:06;13.95;78.70
68943;DHT22;60852;52.190;4.422;2023-11-19T08:27:32;13.97;78.77
68943;DHT22;60852;52.190;4.422;2023-11-19T08:29:57;13.93;79.15
68943;DHT22;60852;52.190;4.422;2023-11-19T08:32:24;14.02;79.23
68943;DHT22;60852;52.190;4.422;2023-11-19T08:34:49;14.03;79.21
68943;DHT22;60852;52.190;4.422;2023-11-19T08:37:15;13.95;79.45
68943;DHT22;60852;52.190;4.422;2023-11-19T08:39:43;14.05;79.60
68943;DHT22;60852;52.190;4.422;2023-11-19T08:42:09;14.10;79.30
68943;DHT22;60852;52.190;4.422;2023-11-19T08:44:34;14.05;79.03
68943;DHT22;60852;52.190;4.422;2023-11-19T08:46:59;14.12;78.71
68943;DHT22;60852;52.190;4.422;2023-11-19T08:49:25;14.05;78.27
68943;DHT22;60852;52.190;4.422;2023-11-19T08:51:51;14.09;78.20
68943;DHT22;60852;52.190;4.422;2023-11-19T08:54:16;14.09;78.29
68943;DHT22;60852;52.190;4.422;2023-11-19T08:56:41;14.21;78.26
68943;DHT22;60852;52.190;4.422;2023-11-19T08:59:07;14.24;78.12
68943;DHT22;60852;52.190;4.422;2023-11-19T09:01:34;14.23;77.98
68943;DHT22;60852;52.190;4.422;2023-11-19T09:03:59;14.23;78.28
68943;DHT22;60852;52.190;4.422;2023-11-19T09:06:25;14.23;78.29
68943;DHT22;60852;52.190;4.422;2023-11-19T09:08:50;14.27;78.00
68943;DHT22;60852;52.190;4.422;2023-11-19T09:11:16;14.28;77.96
68943;DHT22;60852;52.190;4.422;2023-11-19T09:13:42;14.26;78.22
68943;DHT22;60852;52.190;4.422;2023-11-19T09:16:07;14.33;78.25
68943;DHT22;60852;52.190;4.422;2023-11-19T09:18:34;14.38;78.37
68943;DHT22;60852;52.190;4.422;2023-11-19T09:21:00;14.31;78.21
68943;DHT22;60852;52.190;4.422;2023-11-19T09:23:25;14.37;78.14
68943;DHT22;60852;52.190;4.422;2023-11-19T09:25:53;14.42;77.90
68943;DHT22;60852;52.190;4.422;2023-11-19T09:28:18;14.33;77.76
68943;DHT22;60852;52.190;4.422;2023-11-19T09:30:44;14.28;77.73
68943;DHT22;60852;52.190;4.422;2023-11-19T09:33:09;14.30;77.61
68943;DHT22;60852;52.190;4.422;2023-11-19T09:35:35;14.34;77.70
68943;DHT22;60852;52.190;4.422;2023-11-19T09:38:00;14.34;77.78
68943;DHT22;60852;52.190;4.422;2023-11-19T09:40:26;14.38;77.55
68943;DHT22;60852;52.190;4.422;2023-11-19T09:42:51;14.38;77.23
68943;DHT22;60852;52.190;4.422;2023-11-19T09:45:20;14.42;77.10
68943;DHT22;60852;52.190;4.422;2023-11-19T09:47:47;14.37;76.91
68943;DHT22;60852;52.190;4.422;2023-11-19T09:50:19;14.45;76.78
68943;DHT22;60852;52.190;4.422;2023-11-19T09:52:47;14.52;76.36
68943;DHT22;60852;52.190;4.422;2023-11-19T09:55:12;14.69;75.69
68943;DHT22;60852;52.190;4.422;2023-11-19T09:57:39;14.63;75.81
68943;DHT22;60852;52.190;4.422;2023-11-19T10:00:07;14.45;76.43
68943;DHT22;60852;52.190;4.422;2023-11-19T10:02:34;14.33;77.72
68943;DHT22;60852;52.190;4.422;2023-11-19T10:05:06;14.21;78.77
68943;DHT22;60852;52.190;4.422;2023-11-19T10:07:33;14.09;78.34
68943;DHT22;60852;52.190;4.422;2023-11-19T10:10:05;14.10;78.60
68943;DHT22;60852;52.190;4.422;2023-11-19T10:12:31;14.20;78.19
68943;DHT22;60852;52.190;4.422;2023-11-19T10:14:57;14.20;77.87
68943;DHT22;60852;52.190;4.422;2023-11-19T10:17:33;14.16;77.69
68943;DHT22;60852;52.190;4.422;2023-11-19T10:19:59;14.37;77.10
68943;DHT22;60852;52.190;4.422;2023-11-19T10:22:25;14.61;76.18
68943;DHT22;60852;52.190;4.422;2023-11-19T10:24:52;14.82;75.37
68943;DHT22;60852;52.190;4.422;2023-11-19T10:27:17;14.86;75.21
68943;DHT22;60852;52.190;4.422;2023-11-19T10:29:47;14.93;75.05
68943;DHT22;60852;52.190;4.422;2023-11-19T10:32:13;15.05;74.84
68943;DHT22;60852;52.190;4.422;2023-11-19T10:34:40;15.07;74.39
68943;DHT22;60852;52.190;4.422;2023-11-19T10:37:07;15.07;74.55
68943;DHT22;60852;52.190;4.422;2023-11-19T10:39:52;15.00;74.29
68943;DHT22;60852;52.190;4.422;2023-11-19T10:42:21;14.92;74.58
68943;DHT22;60852;52.190;4.422;2023-11-19T10:44:47;14.85;74.87
68943;DHT22;60852;52.190;4.422;2023-11-19T10:47:14;14.79;75.00
68943;DHT22;60852;52.190;4.422;2023-11-19T10:49:40;14.88;75.19
68943;DHT22;60852;52.190;4.422;2023-11-19T10:52:08;14.88;74.69
68943;DHT22;60852;52.190;4.422;2023-11-19T10:54:34;14.84;74.27
68943;DHT22;60852;52.190;4.422;2023-11-19T10:57:02;14.72;74.09
68943;DHT22;60852;52.190;4.422;2023-11-19T10:59:31;14.71;74.36
68943;DHT22;60852;52.190;4.422;2023-11-19T11:02:00;14.76;74.22
68943;DHT22;60852;52.190;4.422;2023-11-19T11:04:31;14.69;74.71
68943;DHT22;60852;52.190;4.422;2023-11-19T11:07:00;14.67;74.44
68943;DHT22;60852;52.190;4.422;2023-11-19T11:09:30;14.69;74.67
68943;DHT22;60852;52.190;4.422;2023-11-19T11:11:55;14.54;74.59
68943;DHT22;60852;52.190;4.422;2023-11-19T11:14:24;14.67;74.62
68943;DHT22;60852;52.190;4.422;2023-11-19T11:16:51;14.65;74.08
68943;DHT22;60852;52.190;4.422;2023-11-19T11:19:17;14.76;74.35
68943;DHT22;60852;52.190;4.422;2023-11-19T11:21:49;14.72;73.97
68943;DHT22;60852;52.190;4.422;2023-11-19T11:32:47;14.93;74.84
68943;DHT22;60852;52.190;4.422;2023-11-19T11:38:23;14.99;74.80
68943;DHT22;60852;52.190;4.422;2023-11-19T11:43:50;14.98;74.73
68943;DHT22;60852;52.190;4.422;2023-11-19T11:49:00;14.84;75.40
68943;DHT22;60852;52.190;4.422;2023-11-19T11:57:07;14.81;75.47
68943;DHT22;60852;52.190;4.422;2023-11-19T12:02:12;14.79;75.75
68943;DHT22;60852;52.190;4.422;2023-11-19T12:04:40;14.74;75.75
68943;DHT22;60852;52.190;4.422;2023-11-19T12:07:07;14.69;76.08
68943;DHT22;60852;52.190;4.422;2023-11-19T12:09:33;14.67;76.23
68943;DHT22;60852;52.190;4.422;2023-11-19T12:20:02;14.69;76.11
68943;DHT22;60852;52.190;4.422;2023-11-19T12:22:28;14.55;76.11
68943;DHT22;60852;52.190;4.422;2023-11-19T12:24:54;14.57;76.26
68943;DHT22;60852;52.190;4.422;2023-11-19T12:27:21;14.55;76.44
68943;DHT22;60852;52.190;4.422;2023-11-19T12:29:48;14.55;76.49
68943;DHT22;60852;52.190;4.422;2023-11-19T12:32:13;14.52;76.78
68943;DHT22;60852;52.190;4.422;2023-11-19T12:34:39;14.61;76.84
68943;DHT22;60852;52.190;4.422;2023-11-19T12:37:05;14.60;76.75
68943;DHT22;60852;52.190;4.422;2023-11-19T12:39:31;14.68;77.03
68943;DHT22;60852;52.190;4.422;2023-11-19T12:41:56;14.67;77.05
68943;DHT22;60852;52.190;4.422;2023-11-19T12:44:25;14.64;77.34
68943;DHT22;60852;52.190;4.422;2023-11-19T12:47:00;14.61;77.48
68943;DHT22;60852;52.190;4.422;2023-11-19T12:49:26;14.55;77.42
68943;DHT22;60852;52.190;4.422;2023-11-19T12:51:52;14.63;77.51
68943;DHT22;60852;52.190;4.422;2023-11-19T12:54:17;14.60;77.21
68943;DHT22;60852;52.190;4.422;2023-11-19T12:56:53;14.58;77.20
68943;DHT22;60852;52.190;4.422;2023-11-19T12:59:19;14.57;77.15
68943;DHT22;60852;52.190;4.422;2023-11-19T13:01:57;14.52;77.86
68943;DHT22;60852;52.190;4.422;2023-11-19T13:04:28;14.55;78.39
68943;DHT22;60852;52.190;4.422;2023-11-19T13:06:54;14.60;78.69
68943;DHT22;60852;52.190;4.422;2023-11-19T13:11:48;14.63;77.47
68943;DHT22;60852;52.190;4.422;2023-11-19T13:14:14;14.75;77.40
68943;DHT22;60852;52.190;4.422;2023-11-19T13:16:39;14.76;77.12
68943;DHT22;60852;52.190;4.422;2023-11-19T13:19:05;14.75;77.10
68943;DHT22;60852;52.190;4.422;2023-11-19T13:21:31;14.71;77.07
68943;DHT22;60852;52.190;4.422;2023-11-19T13:23:57;14.79;77.15
68943;DHT22;60852;52.190;4.422;2023-11-19T13:26:22;14.78;76.87
68943;DHT22;60852;52.190;4.422;2023-11-19T13:28:48;14.76;76.51
68943;DHT22;60852;52.190;4.422;2023-11-19T13:31:14;14.78;76.44
68943;DHT22;60852;52.190;4.422;2023-11-19T13:33:39;14.76;76.38
68943;DHT22;60852;52.190;4.422;2023-11-19T13:36:05;14.74;76.24
68943;DHT22;60852;52.190;4.422;2023-11-19T13:38:34;14.71;76.03
68943;DHT22;60852;52.190;4.422;2023-11-19T13:41:04;14.78;75.90
68943;DHT22;60852;52.190;4.422;2023-11-19T13:43:34;14.69;75.96
68943;DHT22;60852;52.190;4.422;2023-11-19T13:46:00;14.72;76.06
68943;DHT22;60852;52.190;4.422;2023-11-19T13:48:26;14.69;76.03
68943;DHT22;60852;52.190;4.422;2023-11-19T13:50:55;14.64;76.09
68943;DHT22;60852;52.190;4.422;2023-11-19T13:53:21;14.57;76.63
68943;DHT22;60852;52.190;4.422;2023-11-19T13:55:48;14.52;76.96
68943;DHT22;60852;52.190;4.422;2023-11-19T13:58:13;14.34;77.75
68943;DHT22;60852;52.190;4.422;2023-11-19T14:00:39;14.28;78.19
68943;DHT22;60852;52.190;4.422;2023-11-19T14:03:05;14.18;78.52
68943;DHT22;60852;52.190;4.422;2023-11-19T14:05:31;14.07;78.82
68943;DHT22;60852;52.190;4.422;2023-11-19T14:07:57;14.17;78.62
68943;DHT22;60852;52.190;4.422;2023-11-19T14:10:23;14.12;78.36
68943;DHT22;60852;52.190;4.422;2023-11-19T14:12:49;14.09;78.38
68943;DHT22;60852;52.190;4.422;2023-11-19T14:15:17;14.06;78.38
68943;DHT22;60852;52.190;4.422;2023-11-19T14:17:43;14.07;78.39
68943;DHT22;60852;52.190;4.422;2023-11-19T14:20:09;14.07;78.33
68943;DHT22;60852;52.190;4.422;2023-11-19T14:22:44;14.09;78.30
68943;DHT22;60852;52.190;4.422;2023-11-19T14:25:12;14.10;78.21
68943;DHT22;60852;52.190;4.422;2023-11-19T14:27:41;14.14;78.03
68943;DHT22;60852;52.190;4.422;2023-11-19T14:30:09;14.10;78.13
68943;DHT22;60852;52.190;4.422;2023-11-19T14:32:36;14.07;78.23
68943;DHT22;60852;52.190;4.422;2023-11-19T14:35:06;14.00;78.22
68943;DHT22;60852;52.190;4.422;2023-11-19T14:37:32;13.99;78.27
68943;DHT22;60852;52.190;4.422;2023-11-19T14:39:59;14.02;78.25
68943;DHT22;60852;52.190;4.422;2023-11-19T14:42:27;14.09;77.85
68943;DHT22;60852;52.190;4.422;2023-11-19T14:44:53;14.16;77.63
68943;DHT22;60852;52.190;4.422;2023-11-19T14:47:19;14.17;77.24
68943;DHT22;60852;52.190;4.422;2023-11-19T14:49:45;14.10;77.16
68943;DHT22;60852;52.190;4.422;2023-11-19T14:52:10;14.20;77.05
68943;DHT22;60852;52.190;4.422;2023-11-19T14:54:36;14.27;76.58
68943;DHT22;60852;52.190;4.422;2023-11-19T14:57:02;14.20;76.67
68943;DHT22;60852;52.190;4.422;2023-11-19T14:59:28;14.16;76.68
68943;DHT22;60852;52.190;4.422;2023-11-19T15:01:54;14.26;76.50
68943;DHT22;60852;52.190;4.422;2023-11-19T15:04:19;14.20;76.62
68943;DHT22;60852;52.190;4.422;2023-11-19T15:06:45;14.24;76.56
68943;DHT22;60852;52.190;4.422;2023-11-19T15:09:10;14.20;76.55
68943;DHT22;60852;52.190;4.422;2023-11-19T15:11:42;14.17;76.65
68943;DHT22;60852;52.190;4.422;2023-11-19T15:14:07;14.16;76.54
68943;DHT22;60852;52.190;4.422;2023-11-19T15:16:33;14.13;76.90
68943;DHT22;60852;52.190;4.422;2023-11-19T15:19:00;14.18;77.15
68943;DHT22;60852;52.190;4.422;2023-11-19T15:21:28;14.13;77.53
68943;DHT22;60852;52.190;4.422;2023-11-19T15:23:55;14.17;77.70
68943;DHT22;60852;52.190;4.422;2023-11-19T15:26:21;14.10;78.03
68943;DHT22;60852;52.190;4.422;2023-11-19T15:28:47;14.09;78.33
68943;DHT22;60852;52.190;4.422;2023-11-19T15:31:12;14.02;78.69
68943;DHT22;60852;52.190;4.422;2023-11-19T15:33:39;14.00;78.97
68943;DHT22;60852;52.190;4.422;2023-11-19T15:36:05;14.03;79.11
68943;DHT22;60852;52.190;4.422;2023-11-19T15:38:36;14.00;79.56
68943;DHT22;60852;52.190;4.422;2023-11-19T15:41:01;13.91;79.71
68943;DHT22;60852;52.190;4.422;2023-11-19T15:43:28;13.95;79.96
68943;DHT22;60852;52.190;4.422;2023-11-19T15:45:54;13.97;80.02
68943;DHT22;60852;52.190;4.422;2023-11-19T15:48:20;13.96;79.97
68943;DHT22;60852;52.190;4.422;2023-11-19T15:50:45;13.95;80.08
68943;DHT22;60852;52.190;4.422;2023-11-19T15:53:11;13.96;79.95
68943;DHT22;60852;52.190;4.422;2023-11-19T15:55:36;13.96;80.02
68943;DHT22;60852;52.190;4.422;2023-11-19T15:58:02;13.90;80.06
68943;DHT22;60852;52.190;4.422;2023-11-19T16:00:27;13.93;80.13
68943;DHT22;60852;52.190;4.422;2023-11-19T16:02:53;13.90;80.18
68943;DHT22;60852;52.190;4.422;2023-11-19T16:05:19;13.90;80.59